sensor_id;sensor_type;location;lat;lon;timestamp;P1;durP1;ratioP1;P2;durP2;ratioP2
42066;SDS011;27734;47.028;28.820;2023-01-23T00:02:20;21.10;;;8.15;;
42066;SDS011;27734;47.028;28.820;2023-01-23T00:04:52;20.37;;;7.93;;
42066;SDS011;27734;47.028;28.820;2023-01-23T00:07:23;18.63;;;8.33;;
42066;SDS011;27734;47.028;28.820;2023-01-23T00:09:55;20.73;;;8.83;;
42066;SDS011;27734;47.028;28.820;2023-01-23T00:12:26;21.20;;;8.67;;
42066;SDS011;27734;47.028;28.820;2023-01-23T00:14:57;20.43;;;7.83;;
42066;SDS011;27734;47.028;28.820;2023-01-23T00:17:28;18.87;;;7.80;;
42066;SDS011;27734;47.028;28.820;2023-01-23T00:20:00;21.20;;;8.33;;
42066;SDS011;27734;47.028;28.820;2023-01-23T00:22:31;18.93;;;7.90;;
42066;SDS011;27734;47.028;28.820;2023-01-23T00:25:03;18.40;;;7.43;;
42066;SDS011;27734;47.028;28.820;2023-01-23T00:27:35;14.70;;;6.23;;
42066;SDS011;27734;47.028;28.820;2023-01-23T00:30:07;17.67;;;7.40;;
42066;SDS011;27734;47.028;28.820;2023-01-23T00:32:40;17.30;;;7.12;;
42066;SDS011;27734;47.028;28.820;2023-01-23T00:35:11;18.10;;;6.70;;
42066;SDS011;27734;47.028;28.820;2023-01-23T00:37:43;18.47;;;7.10;;
42066;SDS011;27734;47.028;28.820;2023-01-23T00:40:14;18.40;;;7.30;;
42066;SDS011;27734;47.028;28.820;2023-01-23T00:42:45;16.87;;;7.03;;
42066;SDS011;27734;47.028;28.820;2023-01-23T00:45:18;17.37;;;6.60;;
42066;SDS011;27734;47.028;28.820;2023-01-23T00:47:49;18.00;;;7.50;;
42066;SDS011;27734;47.028;28.820;2023-01-23T00:50:20;17.23;;;7.13;;
42066;SDS011;27734;47.028;28.820;2023-01-23T00:52:52;17.23;;;6.43;;
42066;SDS011;27734;47.028;28.820;2023-01-23T00:55:23;21.30;;;7.73;;
42066;SDS011;27734;47.028;28.820;2023-01-23T00:57:56;20.90;;;7.22;;
42066;SDS011;27734;47.028;28.820;2023-01-23T01:00:28;15.00;;;6.17;;
42066;SDS011;27734;47.028;28.820;2023-01-23T01:02:59;18.60;;;6.73;;
42066;SDS011;27734;47.028;28.820;2023-01-23T01:05:31;18.07;;;6.30;;
42066;SDS011;27734;47.028;28.820;2023-01-23T01:08:04;16.73;;;6.23;;
42066;SDS011;27734;47.028;28.820;2023-01-23T01:10:36;16.23;;;6.23;;
42066;SDS011;27734;47.028;28.820;2023-01-23T01:13:09;15.13;;;5.55;;
42066;SDS011;27734;47.028;28.820;2023-01-23T01:15:41;18.47;;;6.77;;
42066;SDS011;27734;47.028;28.820;2023-01-23T01:18:12;18.20;;;6.80;;
42066;SDS011;27734;47.028;28.820;2023-01-23T01:20:44;17.33;;;6.20;;
42066;SDS011;27734;47.028;28.820;2023-01-23T01:23:15;14.70;;;5.40;;
42066;SDS011;27734;47.028;28.820;2023-01-23T01:25:47;15.30;;;5.90;;
42066;SDS011;27734;47.028;28.820;2023-01-23T01:28:18;16.57;;;5.97;;
42066;SDS011;27734;47.028;28.820;2023-01-23T01:30:49;18.17;;;6.77;;
42066;SDS011;27734;47.028;28.820;2023-01-23T01:33:20;17.03;;;6.27;;
42066;SDS011;27734;47.028;28.820;2023-01-23T01:35:53;19.37;;;6.57;;
42066;SDS011;27734;47.028;28.820;2023-01-23T01:38:25;17.97;;;6.50;;
42066;SDS011;27734;47.028;28.820;2023-01-23T01:40:56;18.10;;;6.60;;
42066;SDS011;27734;47.028;28.820;2023-01-23T01:43:27;19.73;;;6.70;;
42066;SDS011;27734;47.028;28.820;2023-01-23T01:46:06;20.27;;;7.70;;
42066;SDS011;27734;47.028;28.820;2023-01-23T01:48:46;20.80;;;7.80;;
42066;SDS011;27734;47.028;28.820;2023-01-23T01:51:24;21.20;;;7.43;;
42066;SDS011;27734;47.028;28.820;2023-01-23T01:53:59;21.40;;;8.33;;
42066;SDS011;27734;47.028;28.820;2023-01-23T01:56:37;20.80;;;7.67;;
42066;SDS011;27734;47.028;28.820;2023-01-23T01:59:12;20.85;;;7.60;;
42066;SDS011;27734;47.028;28.820;2023-01-23T02:01:45;20.77;;;7.63;;
42066;SDS011;27734;47.028;28.820;2023-01-23T02:04:19;21.40;;;7.60;;
42066;SDS011;27734;47.028;28.820;2023-01-23T02:06:51;21.10;;;8.17;;
42066;SDS011;27734;47.028;28.820;2023-01-23T02:09:23;20.53;;;8.07;;
42066;SDS011;27734;47.028;28.820;2023-01-23T02:11:55;23.17;;;8.30;;
42066;SDS011;27734;47.028;28.820;2023-01-23T02:14:29;20.35;;;7.65;;
42066;SDS011;27734;47.028;28.820;2023-01-23T02:17:03;20.03;;;7.67;;
42066;SDS011;27734;47.028;28.820;2023-01-23T02:19:39;21.77;;;8.40;;
42066;SDS011;27734;47.028;28.820;2023-01-23T02:25:16;21.97;;;7.83;;
42066;SDS011;27734;47.028;28.820;2023-01-23T02:27:54;21.03;;;8.07;;
42066;SDS011;27734;47.028;28.820;2023-01-23T02:30:26;25.57;;;8.93;;
42066;SDS011;27734;47.028;28.820;2023-01-23T02:33:07;21.37;;;7.63;;
42066;SDS011;27734;47.028;28.820;2023-01-23T02:35:40;23.73;;;8.67;;
42066;SDS011;27734;47.028;28.820;2023-01-23T02:38:11;21.47;;;8.10;;
42066;SDS011;27734;47.028;28.820;2023-01-23T02:40:43;24.17;;;8.13;;
42066;SDS011;27734;47.028;28.820;2023-01-23T02:43:18;20.73;;;7.97;;
42066;SDS011;27734;47.028;28.820;2023-01-23T02:45:57;23.37;;;8.47;;
42066;SDS011;27734;47.028;28.820;2023-01-23T02:48:32;21.63;;;8.00;;
42066;SDS011;27734;47.028;28.820;2023-01-23T02:51:03;18.13;;;6.67;;
42066;SDS011;27734;47.028;28.820;2023-01-23T02:53:35;17.77;;;6.87;;
42066;SDS011;27734;47.028;28.820;2023-01-23T02:56:06;18.85;;;6.20;;
42066;SDS011;27734;47.028;28.820;2023-01-23T02:58:38;17.23;;;6.23;;
42066;SDS011;27734;47.028;28.820;2023-01-23T03:01:28;16.75;;;5.65;;
42066;SDS011;27734;47.028;28.820;2023-01-23T03:04:03;16.97;;;6.03;;
42066;SDS011;27734;47.028;28.820;2023-01-23T03:06:35;18.23;;;6.60;;
42066;SDS011;27734;47.028;28.820;2023-01-23T03:09:07;17.47;;;6.30;;
42066;SDS011;27734;47.028;28.820;2023-01-23T03:11:40;17.60;;;6.10;;
42066;SDS011;27734;47.028;28.820;2023-01-23T03:14:15;18.70;;;6.47;;
42066;SDS011;27734;47.028;28.820;2023-01-23T03:16:48;17.20;;;6.05;;
42066;SDS011;27734;47.028;28.820;2023-01-23T03:19:21;15.90;;;6.40;;
42066;SDS011;27734;47.028;28.820;2023-01-23T03:21:54;17.90;;;6.23;;
42066;SDS011;27734;47.028;28.820;2023-01-23T03:24:25;15.93;;;6.20;;
42066;SDS011;27734;47.028;28.820;2023-01-23T03:26:56;17.77;;;5.90;;
42066;SDS011;27734;47.028;28.820;2023-01-23T03:29:28;15.97;;;6.27;;
42066;SDS011;27734;47.028;28.820;2023-01-23T03:32:17;15.10;;;6.00;;
42066;SDS011;27734;47.028;28.820;2023-01-23T03:34:49;14.27;;;5.20;;
42066;SDS011;27734;47.028;28.820;2023-01-23T03:37:21;14.40;;;5.53;;
42066;SDS011;27734;47.028;28.820;2023-01-23T03:39:52;14.00;;;5.90;;
42066;SDS011;27734;47.028;28.820;2023-01-23T03:42:41;12.97;;;5.10;;
42066;SDS011;27734;47.028;28.820;2023-01-23T03:45:15;14.57;;;5.27;;
42066;SDS011;27734;47.028;28.820;2023-01-23T03:47:46;16.07;;;5.30;;
42066;SDS011;27734;47.028;28.820;2023-01-23T03:50:17;12.60;;;5.00;;
42066;SDS011;27734;47.028;28.820;2023-01-23T03:52:49;14.50;;;5.33;;
42066;SDS011;27734;47.028;28.820;2023-01-23T03:55:21;15.57;;;5.53;;
42066;SDS011;27734;47.028;28.820;2023-01-23T03:57:54;14.30;;;5.30;;
42066;SDS011;27734;47.028;28.820;2023-01-23T04:00:29;12.27;;;4.40;;
42066;SDS011;27734;47.028;28.820;2023-01-23T04:03:02;10.35;;;4.55;;
42066;SDS011;27734;47.028;28.820;2023-01-23T04:05:34;15.23;;;5.23;;
42066;SDS011;27734;47.028;28.820;2023-01-23T04:08:06;11.40;;;4.77;;
42066;SDS011;27734;47.028;28.820;2023-01-23T04:10:37;12.73;;;4.90;;
42066;SDS011;27734;47.028;28.820;2023-01-23T04:13:14;15.03;;;5.63;;
42066;SDS011;27734;47.028;28.820;2023-01-23T04:15:46;13.97;;;5.13;;
42066;SDS011;27734;47.028;28.820;2023-01-23T04:18:17;12.73;;;4.67;;
42066;SDS011;27734;47.028;28.820;2023-01-23T04:20:48;17.93;;;5.50;;
42066;SDS011;27734;47.028;28.820;2023-01-23T04:23:20;12.80;;;4.70;;
42066;SDS011;27734;47.028;28.820;2023-01-23T04:25:52;17.03;;;5.53;;
42066;SDS011;27734;47.028;28.820;2023-01-23T04:28:23;14.07;;;5.37;;
42066;SDS011;27734;47.028;28.820;2023-01-23T04:30:55;15.35;;;5.70;;
42066;SDS011;27734;47.028;28.820;2023-01-23T04:33:30;13.97;;;5.87;;
42066;SDS011;27734;47.028;28.820;2023-01-23T04:36:03;12.73;;;5.40;;
42066;SDS011;27734;47.028;28.820;2023-01-23T04:38:36;16.37;;;6.08;;
42066;SDS011;27734;47.028;28.820;2023-01-23T04:41:18;12.40;;;4.87;;
42066;SDS011;27734;47.028;28.820;2023-01-23T04:43:54;16.50;;;6.40;;
42066;SDS011;27734;47.028;28.820;2023-01-23T04:46:48;16.50;;;6.10;;
42066;SDS011;27734;47.028;28.820;2023-01-23T04:49:22;15.00;;;5.53;;
42066;SDS011;27734;47.028;28.820;2023-01-23T04:51:54;14.10;;;5.20;;
42066;SDS011;27734;47.028;28.820;2023-01-23T04:54:26;18.20;;;5.50;;
42066;SDS011;27734;47.028;28.820;2023-01-23T04:57:01;12.67;;;5.13;;
42066;SDS011;27734;47.028;28.820;2023-01-23T04:59:32;14.87;;;5.17;;
42066;SDS011;27734;47.028;28.820;2023-01-23T05:02:03;11.10;;;4.53;;
42066;SDS011;27734;47.028;28.820;2023-01-23T05:04:40;14.23;;;5.10;;
42066;SDS011;27734;47.028;28.820;2023-01-23T05:07:11;14.03;;;5.00;;
42066;SDS011;27734;47.028;28.820;2023-01-23T05:09:47;12.10;;;5.03;;
42066;SDS011;27734;47.028;28.820;2023-01-23T05:12:19;14.30;;;5.30;;
42066;SDS011;27734;47.028;28.820;2023-01-23T05:14:50;15.33;;;5.60;;
42066;SDS011;27734;47.028;28.820;2023-01-23T05:17:21;12.53;;;4.93;;
42066;SDS011;27734;47.028;28.820;2023-01-23T05:19:54;14.20;;;4.97;;
42066;SDS011;27734;47.028;28.820;2023-01-23T05:22:26;13.03;;;5.40;;
42066;SDS011;27734;47.028;28.820;2023-01-23T05:24:58;15.27;;;5.93;;
42066;SDS011;27734;47.028;28.820;2023-01-23T05:27:31;14.70;;;5.70;;
42066;SDS011;27734;47.028;28.820;2023-01-23T05:30:02;13.87;;;5.50;;
42066;SDS011;27734;47.028;28.820;2023-01-23T05:32:35;15.27;;;5.50;;
42066;SDS011;27734;47.028;28.820;2023-01-23T05:35:13;16.67;;;5.80;;
42066;SDS011;27734;47.028;28.820;2023-01-23T05:37:48;17.37;;;6.20;;
42066;SDS011;27734;47.028;28.820;2023-01-23T05:40:25;16.70;;;6.40;;
42066;SDS011;27734;47.028;28.820;2023-01-23T05:43:15;20.10;;;7.97;;
42066;SDS011;27734;47.028;28.820;2023-01-23T05:46:05;18.03;;;7.27;;
42066;SDS011;27734;47.028;28.820;2023-01-23T05:48:56;19.60;;;7.20;;
42066;SDS011;27734;47.028;28.820;2023-01-23T05:51:28;20.53;;;7.50;;
42066;SDS011;27734;47.028;28.820;2023-01-23T05:54:01;18.73;;;6.97;;
42066;SDS011;27734;47.028;28.820;2023-01-23T05:56:34;16.77;;;6.50;;
42066;SDS011;27734;47.028;28.820;2023-01-23T05:59:26;18.63;;;6.60;;
42066;SDS011;27734;47.028;28.820;2023-01-23T06:02:10;18.77;;;7.23;;
42066;SDS011;27734;47.028;28.820;2023-01-23T06:04:41;17.53;;;5.77;;
42066;SDS011;27734;47.028;28.820;2023-01-23T06:07:37;16.83;;;6.67;;
42066;SDS011;27734;47.028;28.820;2023-01-23T06:10:10;16.73;;;6.93;;
42066;SDS011;27734;47.028;28.820;2023-01-23T06:12:43;16.52;;;6.47;;
42066;SDS011;27734;47.028;28.820;2023-01-23T06:15:14;15.97;;;5.83;;
42066;SDS011;27734;47.028;28.820;2023-01-23T06:17:46;15.80;;;6.00;;
42066;SDS011;27734;47.028;28.820;2023-01-23T06:20:17;15.83;;;5.83;;
42066;SDS011;27734;47.028;28.820;2023-01-23T06:22:50;16.50;;;6.63;;
42066;SDS011;27734;47.028;28.820;2023-01-23T06:25:21;18.10;;;6.80;;
42066;SDS011;27734;47.028;28.820;2023-01-23T06:27:53;21.23;;;7.60;;
42066;SDS011;27734;47.028;28.820;2023-01-23T06:30:26;18.80;;;7.57;;
42066;SDS011;27734;47.028;28.820;2023-01-23T06:33:05;20.63;;;7.77;;
42066;SDS011;27734;47.028;28.820;2023-01-23T06:35:41;18.53;;;6.93;;
42066;SDS011;27734;47.028;28.820;2023-01-23T06:38:14;18.20;;;6.93;;
42066;SDS011;27734;47.028;28.820;2023-01-23T06:40:48;21.27;;;7.47;;
42066;SDS011;27734;47.028;28.820;2023-01-23T06:43:27;20.30;;;7.00;;
42066;SDS011;27734;47.028;28.820;2023-01-23T06:45:58;19.83;;;7.07;;
42066;SDS011;27734;47.028;28.820;2023-01-23T06:51:04;20.70;;;7.90;;
42066;SDS011;27734;47.028;28.820;2023-01-23T06:53:36;20.57;;;7.43;;
42066;SDS011;27734;47.028;28.820;2023-01-23T06:56:08;19.27;;;7.23;;
42066;SDS011;27734;47.028;28.820;2023-01-23T06:58:42;18.90;;;7.23;;
42066;SDS011;27734;47.028;28.820;2023-01-23T07:01:27;21.07;;;7.70;;
42066;SDS011;27734;47.028;28.820;2023-01-23T07:04:21;24.02;;;7.97;;
42066;SDS011;27734;47.028;28.820;2023-01-23T07:06:55;20.40;;;7.57;;
42066;SDS011;27734;47.028;28.820;2023-01-23T07:09:28;21.37;;;8.50;;
42066;SDS011;27734;47.028;28.820;2023-01-23T07:12:10;22.03;;;7.93;;
42066;SDS011;27734;47.028;28.820;2023-01-23T07:14:42;21.90;;;7.90;;
42066;SDS011;27734;47.028;28.820;2023-01-23T07:17:18;23.87;;;9.10;;
42066;SDS011;27734;47.028;28.820;2023-01-23T07:19:54;21.10;;;8.17;;
42066;SDS011;27734;47.028;28.820;2023-01-23T07:22:26;22.37;;;8.27;;
42066;SDS011;27734;47.028;28.820;2023-01-23T07:24:58;19.63;;;7.60;;
42066;SDS011;27734;47.028;28.820;2023-01-23T07:27:31;20.63;;;7.57;;
42066;SDS011;27734;47.028;28.820;2023-01-23T07:30:07;21.10;;;7.77;;
42066;SDS011;27734;47.028;28.820;2023-01-23T07:35:11;19.57;;;7.40;;
42066;SDS011;27734;47.028;28.820;2023-01-23T07:37:43;19.00;;;7.40;;
42066;SDS011;27734;47.028;28.820;2023-01-23T07:40:16;21.63;;;7.80;;
42066;SDS011;27734;47.028;28.820;2023-01-23T07:42:48;21.40;;;8.37;;
42066;SDS011;27734;47.028;28.820;2023-01-23T07:45:20;23.17;;;9.07;;
42066;SDS011;27734;47.028;28.820;2023-01-23T07:47:52;23.43;;;8.90;;
42066;SDS011;27734;47.028;28.820;2023-01-23T07:50:24;19.63;;;7.83;;
42066;SDS011;27734;47.028;28.820;2023-01-23T07:52:55;20.77;;;8.10;;
42066;SDS011;27734;47.028;28.820;2023-01-23T07:55:26;22.20;;;9.40;;
42066;SDS011;27734;47.028;28.820;2023-01-23T07:57:58;21.43;;;8.73;;
42066;SDS011;27734;47.028;28.820;2023-01-23T08:00:30;17.47;;;7.27;;
42066;SDS011;27734;47.028;28.820;2023-01-23T08:03:03;18.57;;;7.57;;
42066;SDS011;27734;47.028;28.820;2023-01-23T08:05:35;18.80;;;7.40;;
42066;SDS011;27734;47.028;28.820;2023-01-23T08:08:07;19.83;;;7.23;;
42066;SDS011;27734;47.028;28.820;2023-01-23T08:14:50;20.97;;;8.20;;
42066;SDS011;27734;47.028;28.820;2023-01-23T08:17:22;20.20;;;7.97;;
42066;SDS011;27734;47.028;28.820;2023-01-23T08:19:55;21.75;;;8.90;;
42066;SDS011;27734;47.028;28.820;2023-01-23T08:22:27;24.43;;;9.03;;
42066;SDS011;27734;47.028;28.820;2023-01-23T08:24:58;22.13;;;9.00;;
42066;SDS011;27734;47.028;28.820;2023-01-23T08:27:32;20.37;;;8.70;;
42066;SDS011;27734;47.028;28.820;2023-01-23T08:30:11;22.63;;;8.97;;
42066;SDS011;27734;47.028;28.820;2023-01-23T08:32:47;20.63;;;9.50;;
42066;SDS011;27734;47.028;28.820;2023-01-23T08:35:24;22.80;;;9.03;;
42066;SDS011;27734;47.028;28.820;2023-01-23T08:37:56;23.23;;;9.33;;
42066;SDS011;27734;47.028;28.820;2023-01-23T08:40:35;22.13;;;10.60;;
42066;SDS011;27734;47.028;28.820;2023-01-23T08:43:12;21.93;;;9.10;;
42066;SDS011;27734;47.028;28.820;2023-01-23T08:45:47;23.93;;;8.87;;
42066;SDS011;27734;47.028;28.820;2023-01-23T08:48:23;19.77;;;7.73;;
42066;SDS011;27734;47.028;28.820;2023-01-23T08:51:01;19.47;;;7.57;;
42066;SDS011;27734;47.028;28.820;2023-01-23T08:53:37;20.27;;;7.90;;
42066;SDS011;27734;47.028;28.820;2023-01-23T08:56:13;20.30;;;8.23;;
42066;SDS011;27734;47.028;28.820;2023-01-23T08:58:47;23.42;;;8.43;;
42066;SDS011;27734;47.028;28.820;2023-01-23T09:01:24;21.53;;;8.80;;
42066;SDS011;27734;47.028;28.820;2023-01-23T09:04:04;21.03;;;9.30;;
42066;SDS011;27734;47.028;28.820;2023-01-23T09:06:39;25.33;;;10.33;;
42066;SDS011;27734;47.028;28.820;2023-01-23T09:09:13;24.03;;;10.63;;
42066;SDS011;27734;47.028;28.820;2023-01-23T09:11:46;23.80;;;10.10;;
42066;SDS011;27734;47.028;28.820;2023-01-23T09:14:21;24.30;;;9.60;;
42066;SDS011;27734;47.028;28.820;2023-01-23T09:16:56;22.70;;;9.00;;
42066;SDS011;27734;47.028;28.820;2023-01-23T09:19:30;20.53;;;8.73;;
42066;SDS011;27734;47.028;28.820;2023-01-23T09:25:06;27.17;;;10.73;;
42066;SDS011;27734;47.028;28.820;2023-01-23T09:30:41;21.27;;;8.73;;
42066;SDS011;27734;47.028;28.820;2023-01-23T09:35:45;22.17;;;9.07;;
42066;SDS011;27734;47.028;28.820;2023-01-23T09:38:22;22.87;;;9.27;;
42066;SDS011;27734;47.028;28.820;2023-01-23T09:40:55;21.80;;;9.17;;
42066;SDS011;27734;47.028;28.820;2023-01-23T09:43:33;22.90;;;8.20;;
42066;SDS011;27734;47.028;28.820;2023-01-23T09:46:14;16.90;;;6.30;;
42066;SDS011;27734;47.028;28.820;2023-01-23T09:48:52;16.53;;;7.20;;
42066;SDS011;27734;47.028;28.820;2023-01-23T09:51:29;19.33;;;7.50;;
42066;SDS011;27734;47.028;28.820;2023-01-23T09:54:15;16.40;;;6.97;;
42066;SDS011;27734;47.028;28.820;2023-01-23T09:57:03;17.40;;;7.27;;
42066;SDS011;27734;47.028;28.820;2023-01-23T09:59:42;18.53;;;7.23;;
42066;SDS011;27734;47.028;28.820;2023-01-23T10:02:26;20.43;;;7.03;;
42066;SDS011;27734;47.028;28.820;2023-01-23T10:05:13;14.47;;;6.07;;
42066;SDS011;27734;47.028;28.820;2023-01-23T10:07:54;15.70;;;6.03;;
42066;SDS011;27734;47.028;28.820;2023-01-23T10:10:39;19.57;;;7.97;;
42066;SDS011;27734;47.028;28.820;2023-01-23T10:13:25;19.87;;;7.40;;
42066;SDS011;27734;47.028;28.820;2023-01-23T10:16:21;14.23;;;6.20;;
42066;SDS011;27734;47.028;28.820;2023-01-23T10:19:13;15.20;;;6.00;;
42066;SDS011;27734;47.028;28.820;2023-01-23T10:21:57;15.60;;;5.90;;
42066;SDS011;27734;47.028;28.820;2023-01-23T10:24:40;15.20;;;6.63;;
42066;SDS011;27734;47.028;28.820;2023-01-23T10:27:20;14.37;;;6.10;;
42066;SDS011;27734;47.028;28.820;2023-01-23T10:29:55;14.93;;;5.70;;
42066;SDS011;27734;47.028;28.820;2023-01-23T10:32:31;16.13;;;5.93;;
42066;SDS011;27734;47.028;28.820;2023-01-23T10:35:14;14.70;;;6.23;;
42066;SDS011;27734;47.028;28.820;2023-01-23T10:38:05;14.20;;;5.90;;
42066;SDS011;27734;47.028;28.820;2023-01-23T10:40:47;11.00;;;5.13;;
42066;SDS011;27734;47.028;28.820;2023-01-23T10:43:39;10.97;;;5.20;;
42066;SDS011;27734;47.028;28.820;2023-01-23T10:46:13;13.97;;;5.67;;
42066;SDS011;27734;47.028;28.820;2023-01-23T10:48:47;16.00;;;6.13;;
42066;SDS011;27734;47.028;28.820;2023-01-23T10:54:16;12.10;;;5.22;;
42066;SDS011;27734;47.028;28.820;2023-01-23T10:56:53;13.55;;;5.67;;
42066;SDS011;27734;47.028;28.820;2023-01-23T10:59:29;11.13;;;5.07;;
42066;SDS011;27734;47.028;28.820;2023-01-23T11:02:16;13.80;;;5.20;;
42066;SDS011;27734;47.028;28.820;2023-01-23T11:04:52;12.40;;;5.10;;
42066;SDS011;27734;47.028;28.820;2023-01-23T11:07:31;10.77;;;4.70;;
42066;SDS011;27734;47.028;28.820;2023-01-23T11:10:15;12.17;;;4.93;;
42066;SDS011;27734;47.028;28.820;2023-01-23T11:12:50;11.77;;;5.33;;
42066;SDS011;27734;47.028;28.820;2023-01-23T11:15:37;13.00;;;5.65;;
42066;SDS011;27734;47.028;28.820;2023-01-23T11:18:24;11.33;;;4.80;;
42066;SDS011;27734;47.028;28.820;2023-01-23T11:21:03;9.57;;;4.13;;
42066;SDS011;27734;47.028;28.820;2023-01-23T11:23:38;10.77;;;3.97;;
42066;SDS011;27734;47.028;28.820;2023-01-23T11:26:35;8.90;;;4.07;;
42066;SDS011;27734;47.028;28.820;2023-01-23T11:29:21;9.53;;;4.22;;
42066;SDS011;27734;47.028;28.820;2023-01-23T11:31:56;10.13;;;3.97;;
42066;SDS011;27734;47.028;28.820;2023-01-23T11:37:54;11.27;;;4.90;;
42066;SDS011;27734;47.028;28.820;2023-01-23T11:40:43;9.57;;;4.40;;
42066;SDS011;27734;47.028;28.820;2023-01-23T11:43:17;12.53;;;4.53;;
42066;SDS011;27734;47.028;28.820;2023-01-23T11:45:56;12.10;;;5.13;;
42066;SDS011;27734;47.028;28.820;2023-01-23T11:48:44;13.67;;;5.17;;
42066;SDS011;27734;47.028;28.820;2023-01-23T11:51:27;9.53;;;4.20;;
42066;SDS011;27734;47.028;28.820;2023-01-23T11:54:11;9.90;;;4.17;;
42066;SDS011;27734;47.028;28.820;2023-01-23T11:56:53;11.93;;;4.43;;
42066;SDS011;27734;47.028;28.820;2023-01-23T12:03:14;11.60;;;4.80;;
42066;SDS011;27734;47.028;28.820;2023-01-23T12:06:13;10.00;;;4.30;;
42066;SDS011;27734;47.028;28.820;2023-01-23T12:09:04;11.03;;;4.30;;
42066;SDS011;27734;47.028;28.820;2023-01-23T12:11:42;10.13;;;4.30;;
42066;SDS011;27734;47.028;28.820;2023-01-23T12:14:23;11.20;;;4.00;;
42066;SDS011;27734;47.028;28.820;2023-01-23T12:17:14;12.07;;;4.90;;
42066;SDS011;27734;47.028;28.820;2023-01-23T12:20:04;14.13;;;5.43;;
42066;SDS011;27734;47.028;28.820;2023-01-23T12:22:55;14.17;;;5.10;;
42066;SDS011;27734;47.028;28.820;2023-01-23T12:25:54;19.55;;;5.50;;
42066;SDS011;27734;47.028;28.820;2023-01-23T12:28:44;13.53;;;5.10;;
42066;SDS011;27734;47.028;28.820;2023-01-23T12:31:55;12.90;;;4.67;;
42066;SDS011;27734;47.028;28.820;2023-01-23T12:34:43;9.63;;;3.73;;
42066;SDS011;27734;47.028;28.820;2023-01-23T12:37:33;10.53;;;4.20;;
42066;SDS011;27734;47.028;28.820;2023-01-23T12:40:18;11.40;;;4.23;;
42066;SDS011;27734;47.028;28.820;2023-01-23T12:43:00;10.27;;;4.07;;
42066;SDS011;27734;47.028;28.820;2023-01-23T12:45:39;11.20;;;4.20;;
42066;SDS011;27734;47.028;28.820;2023-01-23T12:48:16;10.63;;;4.30;;
42066;SDS011;27734;47.028;28.820;2023-01-23T12:50:58;11.10;;;4.20;;
42066;SDS011;27734;47.028;28.820;2023-01-23T12:56:16;16.20;;;5.33;;
42066;SDS011;27734;47.028;28.820;2023-01-23T12:58:52;12.30;;;4.80;;
42066;SDS011;27734;47.028;28.820;2023-01-23T13:01:38;13.97;;;5.53;;
42066;SDS011;27734;47.028;28.820;2023-01-23T13:04:23;19.50;;;7.13;;
42066;SDS011;27734;47.028;28.820;2023-01-23T13:07:11;18.53;;;7.77;;
42066;SDS011;27734;47.028;28.820;2023-01-23T13:13:29;14.13;;;5.13;;
42066;SDS011;27734;47.028;28.820;2023-01-23T13:16:03;14.70;;;5.40;;
42066;SDS011;27734;47.028;28.820;2023-01-23T13:18:54;14.37;;;5.87;;
42066;SDS011;27734;47.028;28.820;2023-01-23T13:24:46;15.27;;;5.50;;
42066;SDS011;27734;47.028;28.820;2023-01-23T13:27:45;12.27;;;5.13;;
42066;SDS011;27734;47.028;28.820;2023-01-23T13:30:42;12.53;;;5.60;;
42066;SDS011;27734;47.028;28.820;2023-01-23T13:36:30;14.03;;;5.13;;
42066;SDS011;27734;47.028;28.820;2023-01-23T13:45:24;12.70;;;5.00;;
42066;SDS011;27734;47.028;28.820;2023-01-23T13:51:39;17.90;;;6.30;;
42066;SDS011;27734;47.028;28.820;2023-01-23T13:54:13;15.87;;;6.13;;
42066;SDS011;27734;47.028;28.820;2023-01-23T13:57:10;18.70;;;7.33;;
42066;SDS011;27734;47.028;28.820;2023-01-23T13:59:46;17.40;;;6.97;;
42066;SDS011;27734;47.028;28.820;2023-01-23T14:02:22;19.47;;;7.40;;
42066;SDS011;27734;47.028;28.820;2023-01-23T14:05:18;18.70;;;7.53;;
42066;SDS011;27734;47.028;28.820;2023-01-23T14:08:00;17.60;;;6.23;;
42066;SDS011;27734;47.028;28.820;2023-01-23T14:10:33;15.33;;;6.40;;
42066;SDS011;27734;47.028;28.820;2023-01-23T14:13:06;17.73;;;7.03;;
42066;SDS011;27734;47.028;28.820;2023-01-23T14:15:50;14.93;;;5.47;;
42066;SDS011;27734;47.028;28.820;2023-01-23T14:19:52;16.13;;;5.73;;
42066;SDS011;27734;47.028;28.820;2023-01-23T14:22:37;21.00;;;8.00;;
42066;SDS011;27734;47.028;28.820;2023-01-23T14:25:30;16.27;;;6.57;;
42066;SDS011;27734;47.028;28.820;2023-01-23T14:28:13;15.30;;;5.90;;
42066;SDS011;27734;47.028;28.820;2023-01-23T14:30:54;17.93;;;6.03;;
42066;SDS011;27734;47.028;28.820;2023-01-23T14:37:48;15.50;;;6.03;;
42066;SDS011;27734;47.028;28.820;2023-01-23T14:40:27;18.40;;;6.27;;
42066;SDS011;27734;47.028;28.820;2023-01-23T14:45:56;17.33;;;6.67;;
42066;SDS011;27734;47.028;28.820;2023-01-23T14:48:35;18.97;;;6.63;;
42066;SDS011;27734;47.028;28.820;2023-01-23T14:51:17;18.70;;;6.87;;
42066;SDS011;27734;47.028;28.820;2023-01-23T14:53:55;19.20;;;6.80;;
42066;SDS011;27734;47.028;28.820;2023-01-23T14:56:32;21.60;;;8.40;;
42066;SDS011;27734;47.028;28.820;2023-01-23T14:59:14;19.67;;;7.23;;
42066;SDS011;27734;47.028;28.820;2023-01-23T15:02:00;18.23;;;6.90;;
42066;SDS011;27734;47.028;28.820;2023-01-23T15:07:44;21.93;;;8.63;;
42066;SDS011;27734;47.028;28.820;2023-01-23T15:10:23;25.63;;;9.17;;
42066;SDS011;27734;47.028;28.820;2023-01-23T15:13:00;27.87;;;9.90;;
42066;SDS011;27734;47.028;28.820;2023-01-23T15:15:37;21.70;;;8.93;;
42066;SDS011;27734;47.028;28.820;2023-01-23T15:18:22;25.63;;;10.33;;
42066;SDS011;27734;47.028;28.820;2023-01-23T15:20:56;25.40;;;9.63;;
42066;SDS011;27734;47.028;28.820;2023-01-23T15:23:34;23.90;;;9.53;;
42066;SDS011;27734;47.028;28.820;2023-01-23T15:26:20;25.30;;;9.43;;
42066;SDS011;27734;47.028;28.820;2023-01-23T15:28:59;24.50;;;9.27;;
42066;SDS011;27734;47.028;28.820;2023-01-23T15:31:33;23.77;;;9.78;;
42066;SDS011;27734;47.028;28.820;2023-01-23T15:34:20;25.40;;;9.40;;
42066;SDS011;27734;47.028;28.820;2023-01-23T15:36:56;22.30;;;9.03;;
42066;SDS011;27734;47.028;28.820;2023-01-23T15:39:34;25.77;;;9.77;;
42066;SDS011;27734;47.028;28.820;2023-01-23T15:45:15;34.33;;;13.70;;
42066;SDS011;27734;47.028;28.820;2023-01-23T16:12:38;33.50;;;13.07;;
42066;SDS011;27734;47.028;28.820;2023-01-23T16:29:55;30.53;;;12.20;;
42066;SDS011;27734;47.028;28.820;2023-01-23T17:44:07;33.47;;;13.73;;
42066;SDS011;27734;47.028;28.820;2023-01-23T19:11:57;33.57;;;13.07;;
42066;SDS011;27734;47.028;28.820;2023-01-23T20:50:33;31.00;;;12.23;;
42066;SDS011;27734;47.028;28.820;2023-01-23T20:53:08;33.57;;;14.17;;
42066;SDS011;27734;47.028;28.820;2023-01-23T20:56:03;32.58;;;12.63;;
42066;SDS011;27734;47.028;28.820;2023-01-23T20:58:37;31.30;;;13.13;;
42066;SDS011;27734;47.028;28.820;2023-01-23T21:01:29;29.30;;;12.27;;
42066;SDS011;27734;47.028;28.820;2023-01-23T21:04:24;32.23;;;12.77;;
42066;SDS011;27734;47.028;28.820;2023-01-23T21:06:56;33.77;;;13.37;;
42066;SDS011;27734;47.028;28.820;2023-01-23T21:09:28;34.60;;;13.40;;
42066;SDS011;27734;47.028;28.820;2023-01-23T21:14:41;30.60;;;12.20;;
42066;SDS011;27734;47.028;28.820;2023-01-23T21:17:12;32.77;;;12.90;;
42066;SDS011;27734;47.028;28.820;2023-01-23T21:19:43;34.93;;;14.47;;
42066;SDS011;27734;47.028;28.820;2023-01-23T21:22:16;33.57;;;12.57;;